sensor_id;sensor_type;location;lat;lon;timestamp;pressure;altitude;pressure_sealevel;temperature
12430;BMP280;6279;42.192;24.326;2023-07-29T00:01:04;98732.53;;;20.10
12430;BMP280;6279;42.192;24.326;2023-07-29T00:03:29;98737.34;;;20.13
12430;BMP280;6279;42.192;24.326;2023-07-29T00:05:57;98739.00;;;20.02
12430;BMP280;6279;42.192;24.326;2023-07-29T00:08:22;98736.22;;;19.98
12430;BMP280;6279;42.192;24.326;2023-07-29T00:10:48;98749.19;;;19.99
12430;BMP280;6279;42.192;24.326;2023-07-29T00:13:13;98739.66;;;19.98
12430;BMP280;6279;42.192;24.326;2023-07-29T00:15:39;98741.97;;;19.95
12430;BMP280;6279;42.192;24.326;2023-07-29T00:18:04;98732.34;;;19.89
12430;BMP280;6279;42.192;24.326;2023-07-29T00:20:29;98735.94;;;19.72
12430;BMP280;6279;42.192;24.326;2023-07-29T00:22:55;98732.72;;;19.70
12430;BMP280;6279;42.192;24.326;2023-07-29T00:25:23;98728.13;;;19.77
12430;BMP280;6279;42.192;24.326;2023-07-29T00:27:48;98723.41;;;19.78
12430;BMP280;6279;42.192;24.326;2023-07-29T00:30:13;98727.06;;;19.77
12430;BMP280;6279;42.192;24.326;2023-07-29T00:32:39;98732.03;;;19.74
12430;BMP280;6279;42.192;24.326;2023-07-29T00:35:05;98737.88;;;19.76
12430;BMP280;6279;42.192;24.326;2023-07-29T00:37:31;98730.53;;;19.78
12430;BMP280;6279;42.192;24.326;2023-07-29T00:39:56;98732.94;;;19.79
12430;BMP280;6279;42.192;24.326;2023-07-29T00:42:23;98732.81;;;19.75
12430;BMP280;6279;42.192;24.326;2023-07-29T00:44:48;98727.31;;;19.76
12430;BMP280;6279;42.192;24.326;2023-07-29T00:47:15;98716.88;;;19.70
12430;BMP280;6279;42.192;24.326;2023-07-29T00:49:41;98723.06;;;19.64
12430;BMP280;6279;42.192;24.326;2023-07-29T00:52:07;98721.78;;;19.55
12430;BMP280;6279;42.192;24.326;2023-07-29T00:54:33;98724.41;;;19.44
12430;BMP280;6279;42.192;24.326;2023-07-29T00:56:58;98721.53;;;19.45
12430;BMP280;6279;42.192;24.326;2023-07-29T00:59:24;98733.13;;;19.44
12430;BMP280;6279;42.192;24.326;2023-07-29T01:01:50;98727.38;;;19.47
12430;BMP280;6279;42.192;24.326;2023-07-29T01:04:16;98733.84;;;19.51
12430;BMP280;6279;42.192;24.326;2023-07-29T01:06:53;98724.53;;;19.37
12430;BMP280;6279;42.192;24.326;2023-07-29T01:09:41;98728.53;;;19.29
12430;BMP280;6279;42.192;24.326;2023-07-29T01:12:22;98732.53;;;19.20
12430;BMP280;6279;42.192;24.326;2023-07-29T01:18:00;98726.81;;;19.23
12430;BMP280;6279;42.192;24.326;2023-07-29T01:20:33;98729.06;;;19.08
12430;BMP280;6279;42.192;24.326;2023-07-29T01:22:58;98727.88;;;18.93
12430;BMP280;6279;42.192;24.326;2023-07-29T01:25:24;98723.06;;;18.90
12430;BMP280;6279;42.192;24.326;2023-07-29T01:27:51;98727.69;;;18.77
12430;BMP280;6279;42.192;24.326;2023-07-29T01:30:17;98731.69;;;18.68
12430;BMP280;6279;42.192;24.326;2023-07-29T01:35:24;98738.69;;;18.74
12430;BMP280;6279;42.192;24.326;2023-07-29T01:37:55;98735.78;;;18.82
12430;BMP280;6279;42.192;24.326;2023-07-29T01:40:26;98738.22;;;18.77
12430;BMP280;6279;42.192;24.326;2023-07-29T01:42:52;98735.13;;;18.68
12430;BMP280;6279;42.192;24.326;2023-07-29T01:45:18;98731.47;;;18.69
12430;BMP280;6279;42.192;24.326;2023-07-29T01:47:43;98736.81;;;18.63
12430;BMP280;6279;42.192;24.326;2023-07-29T01:50:09;98736.81;;;18.63
12430;BMP280;6279;42.192;24.326;2023-07-29T01:52:35;98744.16;;;18.61
12430;BMP280;6279;42.192;24.326;2023-07-29T01:55:01;98743.25;;;18.67
12430;BMP280;6279;42.192;24.326;2023-07-29T01:57:27;98746.09;;;18.66
12430;BMP280;6279;42.192;24.326;2023-07-29T01:59:52;98752.53;;;18.69
12430;BMP280;6279;42.192;24.326;2023-07-29T02:02:17;98754.94;;;18.71
12430;BMP280;6279;42.192;24.326;2023-07-29T02:04:43;98746.22;;;18.70
12430;BMP280;6279;42.192;24.326;2023-07-29T02:07:10;98754.59;;;18.67
12430;BMP280;6279;42.192;24.326;2023-07-29T02:09:36;98754.38;;;18.69
12430;BMP280;6279;42.192;24.326;2023-07-29T02:12:01;98752.97;;;18.66
12430;BMP280;6279;42.192;24.326;2023-07-29T02:14:27;98752.19;;;18.66
12430;BMP280;6279;42.192;24.326;2023-07-29T02:16:53;98750.97;;;18.51
12430;BMP280;6279;42.192;24.326;2023-07-29T02:19:18;98756.31;;;18.44
12430;BMP280;6279;42.192;24.326;2023-07-29T02:21:44;98758.09;;;18.33
12430;BMP280;6279;42.192;24.326;2023-07-29T02:24:09;98756.34;;;18.27
12430;BMP280;6279;42.192;24.326;2023-07-29T02:26:35;98765.75;;;18.17
12430;BMP280;6279;42.192;24.326;2023-07-29T02:29:00;98763.66;;;18.07
12430;BMP280;6279;42.192;24.326;2023-07-29T02:31:26;98758.00;;;18.04
12430;BMP280;6279;42.192;24.326;2023-07-29T02:33:51;98763.22;;;18.10
12430;BMP280;6279;42.192;24.326;2023-07-29T02:36:17;98761.16;;;18.12
12430;BMP280;6279;42.192;24.326;2023-07-29T02:38:43;98765.06;;;18.10
12430;BMP280;6279;42.192;24.326;2023-07-29T02:41:18;98764.06;;;18.04
12430;BMP280;6279;42.192;24.326;2023-07-29T02:43:48;98765.53;;;18.00
12430;BMP280;6279;42.192;24.326;2023-07-29T02:46:13;98778.25;;;18.03
12430;BMP280;6279;42.192;24.326;2023-07-29T02:48:39;98772.13;;;17.92
12430;BMP280;6279;42.192;24.326;2023-07-29T02:51:04;98772.94;;;17.86
12430;BMP280;6279;42.192;24.326;2023-07-29T02:53:29;98772.53;;;17.89
12430;BMP280;6279;42.192;24.326;2023-07-29T02:55:55;98776.59;;;17.85
12430;BMP280;6279;42.192;24.326;2023-07-29T02:58:20;98781.44;;;17.88
12430;BMP280;6279;42.192;24.326;2023-07-29T03:00:46;98787.53;;;17.88
12430;BMP280;6279;42.192;24.326;2023-07-29T03:03:13;98781.06;;;17.84
12430;BMP280;6279;42.192;24.326;2023-07-29T03:05:39;98787.91;;;17.92
12430;BMP280;6279;42.192;24.326;2023-07-29T03:08:05;98789.09;;;17.96
12430;BMP280;6279;42.192;24.326;2023-07-29T03:10:30;98795.19;;;17.90
12430;BMP280;6279;42.192;24.326;2023-07-29T03:12:56;98794.16;;;17.91
12430;BMP280;6279;42.192;24.326;2023-07-29T03:15:25;98793.84;;;17.81
12430;BMP280;6279;42.192;24.326;2023-07-29T03:17:51;98793.13;;;17.74
12430;BMP280;6279;42.192;24.326;2023-07-29T03:20:16;98794.00;;;17.86
12430;BMP280;6279;42.192;24.326;2023-07-29T03:22:46;98794.16;;;17.91
12430;BMP280;6279;42.192;24.326;2023-07-29T03:25:11;98791.59;;;17.84
12430;BMP280;6279;42.192;24.326;2023-07-29T03:27:37;98796.22;;;17.89
12430;BMP280;6279;42.192;24.326;2023-07-29T03:30:03;98794.56;;;17.88
12430;BMP280;6279;42.192;24.326;2023-07-29T03:32:29;98798.00;;;17.95
12430;BMP280;6279;42.192;24.326;2023-07-29T03:34:54;98805.31;;;17.93
12430;BMP280;6279;42.192;24.326;2023-07-29T03:37:20;98800.34;;;18.02
12430;BMP280;6279;42.192;24.326;2023-07-29T03:39:46;98810.81;;;18.09
12430;BMP280;6279;42.192;24.326;2023-07-29T03:42:12;98806.34;;;18.09
12430;BMP280;6279;42.192;24.326;2023-07-29T03:44:37;98808.19;;;18.09
12430;BMP280;6279;42.192;24.326;2023-07-29T03:47:05;98807.97;;;18.10
12430;BMP280;6279;42.192;24.326;2023-07-29T03:49:30;98804.19;;;18.24
12430;BMP280;6279;42.192;24.326;2023-07-29T03:51:56;98825.22;;;18.24
12430;BMP280;6279;42.192;24.326;2023-07-29T03:54:21;98817.16;;;18.19
12430;BMP280;6279;42.192;24.326;2023-07-29T03:56:46;98820.16;;;18.22
12430;BMP280;6279;42.192;24.326;2023-07-29T03:59:12;98827.47;;;18.21
12430;BMP280;6279;42.192;24.326;2023-07-29T04:01:37;98825.50;;;18.34
12430;BMP280;6279;42.192;24.326;2023-07-29T04:04:03;98822.38;;;18.43
12430;BMP280;6279;42.192;24.326;2023-07-29T04:06:28;98813.13;;;18.52
12430;BMP280;6279;42.192;24.326;2023-07-29T04:08:53;98822.94;;;18.63
12430;BMP280;6279;42.192;24.326;2023-07-29T04:11:19;98822.16;;;18.80
12430;BMP280;6279;42.192;24.326;2023-07-29T04:13:45;98825.13;;;18.83
12430;BMP280;6279;42.192;24.326;2023-07-29T04:16:10;98832.13;;;18.89
12430;BMP280;6279;42.192;24.326;2023-07-29T04:18:35;98831.69;;;18.92
12430;BMP280;6279;42.192;24.326;2023-07-29T04:21:01;98827.41;;;19.09
12430;BMP280;6279;42.192;24.326;2023-07-29T04:23:26;98827.78;;;19.23
12430;BMP280;6279;42.192;24.326;2023-07-29T04:25:52;98830.25;;;19.36
12430;BMP280;6279;42.192;24.326;2023-07-29T04:28:17;98830.59;;;19.39
12430;BMP280;6279;42.192;24.326;2023-07-29T04:30:42;98837.38;;;19.47
12430;BMP280;6279;42.192;24.326;2023-07-29T04:33:08;98827.78;;;19.63
12430;BMP280;6279;42.192;24.326;2023-07-29T04:35:33;98834.34;;;19.83
12430;BMP280;6279;42.192;24.326;2023-07-29T04:37:58;98833.56;;;19.94
12430;BMP280;6279;42.192;24.326;2023-07-29T04:40:24;98823.81;;;20.06
12430;BMP280;6279;42.192;24.326;2023-07-29T04:42:50;98826.44;;;20.28
12430;BMP280;6279;42.192;24.326;2023-07-29T04:45:16;98828.16;;;20.45
12430;BMP280;6279;42.192;24.326;2023-07-29T04:47:42;98835.13;;;20.51
12430;BMP280;6279;42.192;24.326;2023-07-29T04:50:08;98838.34;;;20.65
12430;BMP280;6279;42.192;24.326;2023-07-29T04:52:34;98839.00;;;20.71
12430;BMP280;6279;42.192;24.326;2023-07-29T04:54:59;98845.38;;;20.87
12430;BMP280;6279;42.192;24.326;2023-07-29T04:57:25;98832.38;;;21.24
12430;BMP280;6279;42.192;24.326;2023-07-29T04:59:50;98833.06;;;21.79
12430;BMP280;6279;42.192;24.326;2023-07-29T05:02:18;98821.34;;;22.65
12430;BMP280;6279;42.192;24.326;2023-07-29T05:04:51;98820.00;;;23.57
12430;BMP280;6279;42.192;24.326;2023-07-29T05:07:17;98824.81;;;23.96
12430;BMP280;6279;42.192;24.326;2023-07-29T05:09:42;98840.56;;;24.42
12430;BMP280;6279;42.192;24.326;2023-07-29T05:12:08;98830.41;;;24.85
12430;BMP280;6279;42.192;24.326;2023-07-29T05:14:33;98842.25;;;25.18
12430;BMP280;6279;42.192;24.326;2023-07-29T05:16:58;98834.34;;;25.43
12430;BMP280;6279;42.192;24.326;2023-07-29T05:19:24;98837.03;;;26.01
12430;BMP280;6279;42.192;24.326;2023-07-29T05:21:49;98839.44;;;26.13
12430;BMP280;6279;42.192;24.326;2023-07-29T05:24:14;98846.34;;;26.09
12430;BMP280;6279;42.192;24.326;2023-07-29T05:26:40;98848.19;;;26.33
12430;BMP280;6279;42.192;24.326;2023-07-29T05:29:05;98856.72;;;26.40
12430;BMP280;6279;42.192;24.326;2023-07-29T05:31:31;98850.06;;;26.37
12430;BMP280;6279;42.192;24.326;2023-07-29T05:33:59;98848.97;;;26.43
12430;BMP280;6279;42.192;24.326;2023-07-29T05:36:25;98858.53;;;26.63
12430;BMP280;6279;42.192;24.326;2023-07-29T05:38:54;98852.88;;;26.85
12430;BMP280;6279;42.192;24.326;2023-07-29T05:41:23;98858.69;;;27.01
12430;BMP280;6279;42.192;24.326;2023-07-29T05:43:48;98859.09;;;27.28
12430;BMP280;6279;42.192;24.326;2023-07-29T05:46:23;98850.38;;;27.50
12430;BMP280;6279;42.192;24.326;2023-07-29T05:48:49;98850.44;;;27.45
12430;BMP280;6279;42.192;24.326;2023-07-29T05:51:18;98859.06;;;27.70
12430;BMP280;6279;42.192;24.326;2023-07-29T05:53:48;98856.00;;;27.91
12430;BMP280;6279;42.192;24.326;2023-07-29T05:56:14;98842.56;;;28.24
12430;BMP280;6279;42.192;24.326;2023-07-29T05:58:39;98842.50;;;28.62
12430;BMP280;6279;42.192;24.326;2023-07-29T06:01:04;98841.34;;;28.90
12430;BMP280;6279;42.192;24.326;2023-07-29T06:03:30;98841.47;;;28.02
12430;BMP280;6279;42.192;24.326;2023-07-29T06:05:55;98836.50;;;28.46
12430;BMP280;6279;42.192;24.326;2023-07-29T06:08:21;98838.16;;;28.88
12430;BMP280;6279;42.192;24.326;2023-07-29T06:10:46;98841.56;;;28.94
12430;BMP280;6279;42.192;24.326;2023-07-29T06:13:12;98846.91;;;29.17
12430;BMP280;6279;42.192;24.326;2023-07-29T06:15:37;98838.56;;;29.18
12430;BMP280;6279;42.192;24.326;2023-07-29T06:18:02;98845.38;;;29.29
12430;BMP280;6279;42.192;24.326;2023-07-29T06:20:28;98837.66;;;29.46
12430;BMP280;6279;42.192;24.326;2023-07-29T06:22:53;98843.06;;;29.41
12430;BMP280;6279;42.192;24.326;2023-07-29T06:25:19;98838.94;;;29.66
12430;BMP280;6279;42.192;24.326;2023-07-29T06:27:44;98845.84;;;29.72
12430;BMP280;6279;42.192;24.326;2023-07-29T06:30:10;98839.38;;;29.73
12430;BMP280;6279;42.192;24.326;2023-07-29T06:32:35;98844.91;;;29.95
12430;BMP280;6279;42.192;24.326;2023-07-29T06:35:01;98847.19;;;30.06
12430;BMP280;6279;42.192;24.326;2023-07-29T06:37:26;98841.44;;;30.12
12430;BMP280;6279;42.192;24.326;2023-07-29T06:39:51;98833.56;;;30.60
12430;BMP280;6279;42.192;24.326;2023-07-29T06:42:17;98836.72;;;30.88
12430;BMP280;6279;42.192;24.326;2023-07-29T06:44:42;98835.56;;;30.94
12430;BMP280;6279;42.192;24.326;2023-07-29T06:47:08;98824.41;;;31.14
12430;BMP280;6279;42.192;24.326;2023-07-29T06:49:33;98825.41;;;31.05
12430;BMP280;6279;42.192;24.326;2023-07-29T06:51:59;98829.88;;;31.57
12430;BMP280;6279;42.192;24.326;2023-07-29T06:54:24;98824.00;;;31.76
12430;BMP280;6279;42.192;24.326;2023-07-29T06:56:51;98828.28;;;31.99
12430;BMP280;6279;42.192;24.326;2023-07-29T06:59:16;98832.94;;;31.64
12430;BMP280;6279;42.192;24.326;2023-07-29T07:01:42;98825.28;;;31.57
12430;BMP280;6279;42.192;24.326;2023-07-29T07:04:07;98813.81;;;31.87
12430;BMP280;6279;42.192;24.326;2023-07-29T07:06:32;98804.34;;;32.11
12430;BMP280;6279;42.192;24.326;2023-07-29T07:08:58;98805.22;;;32.58
12430;BMP280;6279;42.192;24.326;2023-07-29T07:11:23;98806.19;;;33.08
12430;BMP280;6279;42.192;24.326;2023-07-29T07:13:49;98801.81;;;33.62
12430;BMP280;6279;42.192;24.326;2023-07-29T07:16:14;98807.47;;;33.85
12430;BMP280;6279;42.192;24.326;2023-07-29T07:18:40;98799.34;;;34.10
12430;BMP280;6279;42.192;24.326;2023-07-29T07:21:05;98799.84;;;33.79
12430;BMP280;6279;42.192;24.326;2023-07-29T07:23:30;98805.81;;;33.01
12430;BMP280;6279;42.192;24.326;2023-07-29T07:25:56;98809.22;;;33.40
12430;BMP280;6279;42.192;24.326;2023-07-29T07:28:21;98797.78;;;33.34
12430;BMP280;6279;42.192;24.326;2023-07-29T07:30:46;98801.28;;;34.01
12430;BMP280;6279;42.192;24.326;2023-07-29T07:33:14;98788.59;;;34.47
12430;BMP280;6279;42.192;24.326;2023-07-29T07:35:42;98793.91;;;35.00
12430;BMP280;6279;42.192;24.326;2023-07-29T07:38:08;98796.13;;;35.27
12430;BMP280;6279;42.192;24.326;2023-07-29T07:40:35;98794.19;;;34.79
12430;BMP280;6279;42.192;24.326;2023-07-29T07:43:01;98790.16;;;34.84
12430;BMP280;6279;42.192;24.326;2023-07-29T07:45:26;98785.19;;;35.63
12430;BMP280;6279;42.192;24.326;2023-07-29T07:47:56;98783.63;;;35.94
12430;BMP280;6279;42.192;24.326;2023-07-29T07:50:21;98772.47;;;36.63
12430;BMP280;6279;42.192;24.326;2023-07-29T07:52:51;98776.34;;;37.35
12430;BMP280;6279;42.192;24.326;2023-07-29T07:55:16;98780.97;;;37.58
12430;BMP280;6279;42.192;24.326;2023-07-29T07:57:42;98772.78;;;37.08
12430;BMP280;6279;42.192;24.326;2023-07-29T08:00:07;98766.69;;;36.64
12430;BMP280;6279;42.192;24.326;2023-07-29T08:02:33;98772.81;;;36.49
12430;BMP280;6279;42.192;24.326;2023-07-29T08:04:58;98769.72;;;37.09
12430;BMP280;6279;42.192;24.326;2023-07-29T08:07:24;98754.59;;;36.97
12430;BMP280;6279;42.192;24.326;2023-07-29T08:09:49;98747.69;;;37.50
12430;BMP280;6279;42.192;24.326;2023-07-29T08:12:15;98744.91;;;38.00
12430;BMP280;6279;42.192;24.326;2023-07-29T08:14:40;98740.56;;;37.84
12430;BMP280;6279;42.192;24.326;2023-07-29T08:17:17;98751.19;;;37.11
12430;BMP280;6279;42.192;24.326;2023-07-29T08:19:48;98743.81;;;35.63
12430;BMP280;6279;42.192;24.326;2023-07-29T08:22:14;98746.31;;;35.08
12430;BMP280;6279;42.192;24.326;2023-07-29T08:24:39;98738.00;;;36.63
12430;BMP280;6279;42.192;24.326;2023-07-29T08:27:05;98743.28;;;37.84
12430;BMP280;6279;42.192;24.326;2023-07-29T08:29:30;98727.00;;;39.79
12430;BMP280;6279;42.192;24.326;2023-07-29T08:31:56;98739.06;;;38.59
12430;BMP280;6279;42.192;24.326;2023-07-29T08:34:21;98749.84;;;38.10
12430;BMP280;6279;42.192;24.326;2023-07-29T08:36:47;98746.66;;;37.27
12430;BMP280;6279;42.192;24.326;2023-07-29T08:39:12;98737.44;;;38.88
12430;BMP280;6279;42.192;24.326;2023-07-29T08:41:47;98740.13;;;39.55
12430;BMP280;6279;42.192;24.326;2023-07-29T08:44:26;98737.97;;;40.71
12430;BMP280;6279;42.192;24.326;2023-07-29T08:46:52;98732.81;;;42.10
12430;BMP280;6279;42.192;24.326;2023-07-29T08:49:19;98721.56;;;44.56
12430;BMP280;6279;42.192;24.326;2023-07-29T08:51:46;98723.13;;;44.57
12430;BMP280;6279;42.192;24.326;2023-07-29T08:54:13;98715.09;;;45.48
12430;BMP280;6279;42.192;24.326;2023-07-29T08:56:41;98715.22;;;45.98
12430;BMP280;6279;42.192;24.326;2023-07-29T08:59:08;98707.03;;;44.52
12430;BMP280;6279;42.192;24.326;2023-07-29T09:01:33;98701.19;;;44.40
12430;BMP280;6279;42.192;24.326;2023-07-29T09:03:59;98701.84;;;43.78
12430;BMP280;6279;42.192;24.326;2023-07-29T09:06:25;98695.22;;;43.83
12430;BMP280;6279;42.192;24.326;2023-07-29T09:08:53;98695.31;;;42.07
12430;BMP280;6279;42.192;24.326;2023-07-29T09:11:19;98688.22;;;43.05
12430;BMP280;6279;42.192;24.326;2023-07-29T09:13:45;98680.00;;;44.26
12430;BMP280;6279;42.192;24.326;2023-07-29T09:16:11;98682.03;;;45.61
12430;BMP280;6279;42.192;24.326;2023-07-29T09:18:37;98679.25;;;46.25
12430;BMP280;6279;42.192;24.326;2023-07-29T09:21:02;98668.81;;;47.84
12430;BMP280;6279;42.192;24.326;2023-07-29T09:23:28;98663.19;;;48.84
12430;BMP280;6279;42.192;24.326;2023-07-29T09:26:03;98657.97;;;48.67
12430;BMP280;6279;42.192;24.326;2023-07-29T09:28:33;98675.06;;;45.40
12430;BMP280;6279;42.192;24.326;2023-07-29T09:30:59;98671.22;;;46.47
12430;BMP280;6279;42.192;24.326;2023-07-29T09:33:26;98658.47;;;46.64
12430;BMP280;6279;42.192;24.326;2023-07-29T09:35:51;98661.13;;;44.97
12430;BMP280;6279;42.192;24.326;2023-07-29T09:38:17;98650.63;;;44.30
12430;BMP280;6279;42.192;24.326;2023-07-29T09:40:42;98654.91;;;44.66
12430;BMP280;6279;42.192;24.326;2023-07-29T09:43:10;98655.31;;;45.69
12430;BMP280;6279;42.192;24.326;2023-07-29T09:45:36;98644.66;;;46.27
12430;BMP280;6279;42.192;24.326;2023-07-29T09:48:04;98646.19;;;45.82
12430;BMP280;6279;42.192;24.326;2023-07-29T09:50:35;98653.16;;;45.19
12430;BMP280;6279;42.192;24.326;2023-07-29T09:53:02;98646.16;;;46.39
12430;BMP280;6279;42.192;24.326;2023-07-29T09:55:28;98648.03;;;47.17
12430;BMP280;6279;42.192;24.326;2023-07-29T09:57:58;98650.34;;;47.52
12430;BMP280;6279;42.192;24.326;2023-07-29T10:00:27;98645.06;;;47.35
12430;BMP280;6279;42.192;24.326;2023-07-29T10:02:53;98647.53;;;47.59
12430;BMP280;6279;42.192;24.326;2023-07-29T10:05:20;98636.47;;;46.60
12430;BMP280;6279;42.192;24.326;2023-07-29T10:07:45;98627.41;;;46.63
12430;BMP280;6279;42.192;24.326;2023-07-29T10:10:12;98635.75;;;47.55
12430;BMP280;6279;42.192;24.326;2023-07-29T10:12:39;98632.19;;;48.06
12430;BMP280;6279;42.192;24.326;2023-07-29T10:15:06;98633.16;;;48.86
12430;BMP280;6279;42.192;24.326;2023-07-29T10:17:38;98626.53;;;46.73
12430;BMP280;6279;42.192;24.326;2023-07-29T10:20:08;98633.09;;;46.00
12430;BMP280;6279;42.192;24.326;2023-07-29T10:22:39;98624.31;;;44.67
12430;BMP280;6279;42.192;24.326;2023-07-29T10:25:09;98624.06;;;45.42
12430;BMP280;6279;42.192;24.326;2023-07-29T10:27:42;98624.63;;;44.86
12430;BMP280;6279;42.192;24.326;2023-07-29T10:30:10;98614.66;;;45.93
12430;BMP280;6279;42.192;24.326;2023-07-29T10:32:37;98610.88;;;46.99
12430;BMP280;6279;42.192;24.326;2023-07-29T10:35:03;98602.53;;;48.13
12430;BMP280;6279;42.192;24.326;2023-07-29T10:37:29;98599.75;;;47.39
12430;BMP280;6279;42.192;24.326;2023-07-29T10:39:55;98591.50;;;47.36
12430;BMP280;6279;42.192;24.326;2023-07-29T10:42:21;98582.00;;;47.66
12430;BMP280;6279;42.192;24.326;2023-07-29T10:44:51;98589.66;;;46.96
12430;BMP280;6279;42.192;24.326;2023-07-29T10:47:23;98580.84;;;48.15
12430;BMP280;6279;42.192;24.326;2023-07-29T10:49:58;98590.22;;;46.48
12430;BMP280;6279;42.192;24.326;2023-07-29T10:52:42;98587.16;;;45.40
12430;BMP280;6279;42.192;24.326;2023-07-29T10:58:24;98570.69;;;43.84
12430;BMP280;6279;42.192;24.326;2023-07-29T11:00:50;98570.09;;;42.96
12430;BMP280;6279;42.192;24.326;2023-07-29T11:03:15;98568.66;;;43.36
12430;BMP280;6279;42.192;24.326;2023-07-29T11:08:31;98555.41;;;43.79
12430;BMP280;6279;42.192;24.326;2023-07-29T11:11:05;98546.38;;;43.48
12430;BMP280;6279;42.192;24.326;2023-07-29T11:13:37;98562.00;;;41.91
12430;BMP280;6279;42.192;24.326;2023-07-29T11:16:04;98559.28;;;42.40
12430;BMP280;6279;42.192;24.326;2023-07-29T11:18:31;98549.13;;;41.49
12430;BMP280;6279;42.192;24.326;2023-07-29T11:20:58;98549.50;;;41.47
12430;BMP280;6279;42.192;24.326;2023-07-29T11:23:28;98550.03;;;40.91
12430;BMP280;6279;42.192;24.326;2023-07-29T11:25:54;98548.97;;;39.25
12430;BMP280;6279;42.192;24.326;2023-07-29T11:28:20;98548.06;;;38.28
12430;BMP280;6279;42.192;24.326;2023-07-29T11:30:47;98541.19;;;38.34
12430;BMP280;6279;42.192;24.326;2023-07-29T11:33:12;98545.31;;;38.09
12430;BMP280;6279;42.192;24.326;2023-07-29T11:35:38;98546.56;;;37.66
12430;BMP280;6279;42.192;24.326;2023-07-29T11:38:03;98532.63;;;37.37
12430;BMP280;6279;42.192;24.326;2023-07-29T11:40:29;98530.69;;;37.83
12430;BMP280;6279;42.192;24.326;2023-07-29T11:42:55;98523.06;;;38.56
12430;BMP280;6279;42.192;24.326;2023-07-29T11:45:21;98527.22;;;39.06
12430;BMP280;6279;42.192;24.326;2023-07-29T11:47:48;98520.47;;;39.19
12430;BMP280;6279;42.192;24.326;2023-07-29T11:50:14;98525.09;;;39.37
12430;BMP280;6279;42.192;24.326;2023-07-29T11:52:41;98514.03;;;39.27
12430;BMP280;6279;42.192;24.326;2023-07-29T11:55:08;98506.69;;;39.31
12430;BMP280;6279;42.192;24.326;2023-07-29T11:57:35;98508.94;;;39.47
12430;BMP280;6279;42.192;24.326;2023-07-29T12:00:09;98508.88;;;39.44
12430;BMP280;6279;42.192;24.326;2023-07-29T12:02:43;98507.66;;;39.41
12430;BMP280;6279;42.192;24.326;2023-07-29T12:05:13;98509.28;;;39.46
12430;BMP280;6279;42.192;24.326;2023-07-29T12:07:39;98509.28;;;39.68
12430;BMP280;6279;42.192;24.326;2023-07-29T12:10:05;98497.97;;;39.22
12430;BMP280;6279;42.192;24.326;2023-07-29T12:12:31;98494.09;;;39.23
12430;BMP280;6279;42.192;24.326;2023-07-29T12:14:56;98489.22;;;39.31
12430;BMP280;6279;42.192;24.326;2023-07-29T12:17:22;98490.16;;;39.20
12430;BMP280;6279;42.192;24.326;2023-07-29T12:19:47;98489.44;;;38.83
12430;BMP280;6279;42.192;24.326;2023-07-29T12:22:18;98485.66;;;38.50
12430;BMP280;6279;42.192;24.326;2023-07-29T12:24:44;98479.63;;;38.22
12430;BMP280;6279;42.192;24.326;2023-07-29T12:27:13;98487.75;;;37.89
12430;BMP280;6279;42.192;24.326;2023-07-29T12:29:43;98483.09;;;38.04
12430;BMP280;6279;42.192;24.326;2023-07-29T12:32:09;98479.91;;;38.18
12430;BMP280;6279;42.192;24.326;2023-07-29T12:34:36;98475.31;;;37.88
12430;BMP280;6279;42.192;24.326;2023-07-29T12:37:03;98477.72;;;37.44
12430;BMP280;6279;42.192;24.326;2023-07-29T12:39:30;98476.59;;;37.30
12430;BMP280;6279;42.192;24.326;2023-07-29T12:41:58;98480.94;;;37.04
12430;BMP280;6279;42.192;24.326;2023-07-29T12:44:30;98477.66;;;37.25
12430;BMP280;6279;42.192;24.326;2023-07-29T12:46:56;98472.97;;;37.10
12430;BMP280;6279;42.192;24.326;2023-07-29T12:49:21;98468.44;;;37.45
12430;BMP280;6279;42.192;24.326;2023-07-29T12:51:47;98473.78;;;37.56
12430;BMP280;6279;42.192;24.326;2023-07-29T12:54:13;98469.59;;;37.44
12430;BMP280;6279;42.192;24.326;2023-07-29T12:56:38;98465.84;;;37.97
12430;BMP280;6279;42.192;24.326;2023-07-29T12:59:05;98468.41;;;38.42
12430;BMP280;6279;42.192;24.326;2023-07-29T13:01:30;98472.13;;;38.35
12430;BMP280;6279;42.192;24.326;2023-07-29T13:03:56;98458.84;;;38.67
12430;BMP280;6279;42.192;24.326;2023-07-29T13:06:22;98456.25;;;38.55
12430;BMP280;6279;42.192;24.326;2023-07-29T13:08:48;98477.66;;;37.55
12430;BMP280;6279;42.192;24.326;2023-07-29T13:11:17;98465.28;;;37.73
12430;BMP280;6279;42.192;24.326;2023-07-29T13:13:42;98467.09;;;37.84
12430;BMP280;6279;42.192;24.326;2023-07-29T13:16:09;98466.16;;;37.77
12430;BMP280;6279;42.192;24.326;2023-07-29T13:18:34;98461.53;;;37.17
12430;BMP280;6279;42.192;24.326;2023-07-29T13:21:00;98466.63;;;36.76
12430;BMP280;6279;42.192;24.326;2023-07-29T13:23:26;98454.22;;;36.75
12430;BMP280;6279;42.192;24.326;2023-07-29T13:25:52;98459.38;;;36.95
12430;BMP280;6279;42.192;24.326;2023-07-29T13:28:17;98472.78;;;36.23
12430;BMP280;6279;42.192;24.326;2023-07-29T13:30:44;98463.28;;;35.78
12430;BMP280;6279;42.192;24.326;2023-07-29T13:33:09;98464.19;;;35.47
12430;BMP280;6279;42.192;24.326;2023-07-29T13:35:35;98460.22;;;35.68
12430;BMP280;6279;42.192;24.326;2023-07-29T13:38:01;98460.91;;;35.65
12430;BMP280;6279;42.192;24.326;2023-07-29T13:40:26;98451.06;;;35.73
12430;BMP280;6279;42.192;24.326;2023-07-29T13:42:52;98456.19;;;35.62
12430;BMP280;6279;42.192;24.326;2023-07-29T13:45:18;98451.59;;;34.96
12430;BMP280;6279;42.192;24.326;2023-07-29T13:47:44;98448.91;;;34.96
12430;BMP280;6279;42.192;24.326;2023-07-29T13:50:09;98452.59;;;34.91
12430;BMP280;6279;42.192;24.326;2023-07-29T13:52:36;98451.16;;;34.94
12430;BMP280;6279;42.192;24.326;2023-07-29T13:55:02;98449.69;;;34.96
12430;BMP280;6279;42.192;24.326;2023-07-29T13:57:27;98444.38;;;34.88
12430;BMP280;6279;42.192;24.326;2023-07-29T13:59:53;98443.06;;;34.94
12430;BMP280;6279;42.192;24.326;2023-07-29T14:02:18;98451.53;;;35.16
12430;BMP280;6279;42.192;24.326;2023-07-29T14:04:43;98445.22;;;35.35
12430;BMP280;6279;42.192;24.326;2023-07-29T14:07:09;98450.78;;;35.51
12430;BMP280;6279;42.192;24.326;2023-07-29T14:09:34;98446.38;;;35.46
12430;BMP280;6279;42.192;24.326;2023-07-29T14:11:59;98453.34;;;35.24
12430;BMP280;6279;42.192;24.326;2023-07-29T14:14:25;98445.09;;;35.32
12430;BMP280;6279;42.192;24.326;2023-07-29T14:16:50;98440.25;;;35.37